Time;durP1;ratioP1;P1;durP2;ratioP2;P2;SDS_P1;SDS_P2;PMS_P1;PMS_P2;Temp;Humidity;BMP_temperature;BMP_pressure;BME280_temperature;BME280_humidity;BME280_pressure;Samples;Min_cycle;Max_cycle;Signal;HPM_P1;HPM_P2
2022/03/19 00:00:19;;;;;;;;;8.00;5.00;;;;;-146.03;100.00;60875.16;5012558;28;45858;-82
2022/03/19 00:02:45;;;;;;;;;3.25;3.25;;;;;-146.03;100.00;60875.16;5008290;28;45655;-81
2022/03/19 00:05:10;;;;;;;;;5.25;5.25;;;;;-146.03;100.00;60875.16;5009365;28;46032;-82
2022/03/19 00:07:39;;;;;;;;;6.00;6.00;;;;;-146.03;100.00;60875.16;5009154;28;45612;-82
2022/03/19 00:10:06;;;;;;;;;4.75;4.75;;;;;-146.03;100.00;60875.16;5010747;28;45304;-83
2022/03/19 00:12:32;;;;;;;;;6.00;4.75;;;;;-146.03;100.00;60875.16;5010769;28;45654;-82
2022/03/19 00:14:57;;;;;;;;;5.50;5.50;;;;;-146.03;100.00;60875.16;4991830;28;47187;-81
2022/03/19 00:17:23;;;;;;;;;5.00;4.25;;;;;-146.03;100.00;60875.16;5008904;28;45383;-82
2022/03/19 00:19:48;;;;;;;;;24.75;24.25;;;;;-146.03;100.00;60875.16;5008949;28;45404;-82
2022/03/19 00:22:14;;;;;;;;;5.75;5.75;;;;;-146.03;100.00;60875.16;5008768;28;45406;-82
2022/03/19 00:24:39;;;;;;;;;5.50;5.50;;;;;-146.03;100.00;60875.16;5007456;28;46313;-83
2022/03/19 00:27:05;;;;;;;;;4.25;4.25;;;;;-146.03;100.00;60875.16;4993368;28;45526;-82
2022/03/19 00:29:30;;;;;;;;;7.00;4.00;;;;;-146.03;100.00;60875.16;5007024;28;45971;-83
2022/03/19 00:31:55;;;;;;;;;3.25;2.75;;;;;-146.03;100.00;60875.16;5003152;28;45597;-82
2022/03/19 00:34:21;;;;;;;;;4.25;4.25;;;;;-146.03;100.00;60875.16;5006736;28;46560;-81
2022/03/19 00:36:46;;;;;;;;;4.00;4.00;;;;;-146.03;100.00;60875.16;5008175;28;45438;-82
2022/03/19 00:39:12;;;;;;;;;5.75;4.75;;;;;-146.03;100.00;60875.16;5009336;28;45669;-82
2022/03/19 00:41:37;;;;;;;;;5.00;5.00;;;;;-146.03;100.00;60875.16;5011859;28;45441;-82
2022/03/19 00:44:03;;;;;;;;;4.00;4.00;;;;;-146.03;100.00;60875.16;5010591;28;45434;-82
2022/03/19 00:46:28;;;;;;;;;5.00;5.00;;;;;-146.03;100.00;60875.16;5009385;28;45536;-82
2022/03/19 00:48:53;;;;;;;;;5.25;5.00;;;;;-146.03;100.00;60875.16;5009826;28;45522;-82
2022/03/19 00:51:19;;;;;;;;;4.00;4.00;;;;;-146.03;100.00;60875.16;5011078;28;45497;-82
2022/03/19 00:53:44;;;;;;;;;4.00;4.00;;;;;-146.03;100.00;60875.16;5011050;28;46508;-82
2022/03/19 00:56:10;;;;;;;;;4.00;4.00;;;;;-146.03;100.00;60875.16;5008117;28;45293;-83
2022/03/19 00:58:35;;;;;;;;;4.75;4.25;;;;;-146.03;100.00;60875.16;5014692;28;45387;-82
2022/03/19 01:01:01;;;;;;;;;4.75;3.00;;;;;-146.03;100.00;60875.16;5012516;28;45529;-82
2022/03/19 01:03:26;;;;;;;;;3.25;3.25;;;;;-146.03;100.00;60875.16;5010618;28;45486;-83
2022/03/19 01:05:51;;;;;;;;;8.25;5.00;;;;;-146.03;100.00;60875.16;5014764;28;45595;-82
2022/03/19 01:08:17;;;;;;;;;3.50;3.50;;;;;-146.03;100.00;60875.16;5016294;28;45360;-82
2022/03/19 01:10:42;;;;;;;;;3.00;3.00;;;;;-146.03;100.00;60875.16;5015256;28;45469;-82
2022/03/19 01:13:07;;;;;;;;;4.00;4.00;;;;;-146.03;100.00;60875.16;5013438;28;45781;-82
2022/03/19 01:15:33;;;;;;;;;2.75;2.75;;;;;-146.03;100.00;60875.16;5009504;28;45457;-82
2022/03/19 01:18:00;;;;;;;;;4.00;4.00;;;;;-146.03;100.00;60875.16;5009961;28;45635;-82
2022/03/19 01:20:27;;;;;;;;;3.75;3.75;;;;;-146.03;100.00;60875.16;5014119;28;45450;-82
2022/03/19 01:22:52;;;;;;;;;2.75;2.75;;;;;-146.03;100.00;60875.16;5016218;28;45720;-83
2022/03/19 01:25:19;;;;;;;;;4.25;4.25;;;;;-146.03;100.00;60875.16;5012615;28;45406;-82
2022/03/19 01:27:47;;;;;;;;;2.25;2.25;;;;;-146.03;100.00;60875.16;5011787;28;45669;-82
2022/03/19 01:30:16;;;;;;;;;4.00;4.00;;;;;-146.03;100.00;60875.16;5009081;28;45564;-83
2022/03/19 01:32:43;;;;;;;;;4.00;3.25;;;;;-146.03;100.00;60875.16;5006727;28;47377;-82
2022/03/19 01:35:10;;;;;;;;;8.00;5.75;;;;;-146.03;100.00;60875.16;5005517;28;47118;-83
2022/03/19 01:37:36;;;;;;;;;5.50;3.75;;;;;-146.03;100.00;60875.16;4991053;28;45482;-82
2022/03/19 01:40:03;;;;;;;;;9.00;5.75;;;;;-146.03;100.00;60875.16;5012172;28;45634;-82
2022/03/19 01:42:34;;;;;;;;;2.75;2.75;;;;;-146.03;100.00;60875.16;5010671;28;45986;-82
2022/03/19 01:45:00;;;;;;;;;3.75;3.75;;;;;-146.03;100.00;60875.16;5007432;28;45536;-82
2022/03/19 01:47:28;;;;;;;;;3.75;3.75;;;;;-146.03;100.00;60875.16;5007706;28;45413;-82
2022/03/19 01:49:54;;;;;;;;;3.00;3.00;;;;;-146.03;100.00;60875.16;5009874;28;45321;-82
2022/03/19 01:52:19;;;;;;;;;3.25;3.25;;;;;-146.03;100.00;60875.16;4999283;28;47384;-82
2022/03/19 01:54:48;;;;;;;;;4.00;4.00;;;;;-146.03;100.00;60875.16;5012505;28;45912;-82
2022/03/19 01:57:21;;;;;;;;;6.50;6.00;;;;;-146.03;100.00;60875.16;5012028;28;45485;-83
2022/03/19 01:59:46;;;;;;;;;4.00;4.00;;;;;-146.03;100.00;60875.16;5013229;28;45458;-83
2022/03/19 02:02:13;;;;;;;;;6.75;5.00;;;;;-146.03;100.00;60875.16;4994392;28;47288;-82
2022/03/19 02:04:39;;;;;;;;;2.75;2.75;;;;;-146.03;100.00;60875.16;5011836;28;45485;-81
2022/03/19 02:07:09;;;;;;;;;5.75;4.50;;;;;-146.03;100.00;60875.16;5010676;28;45423;-82
2022/03/19 02:09:36;;;;;;;;;3.50;3.50;;;;;-146.03;100.00;60875.16;4990680;28;45451;-82
2022/03/19 02:12:03;;;;;;;;;5.00;4.00;;;;;-146.03;100.00;60875.16;5009545;28;48856;-82
2022/03/19 02:14:29;;;;;;;;;13.50;9.75;;;;;-146.03;100.00;60875.16;5006019;28;45430;-82
2022/03/19 02:16:54;;;;;;;;;7.00;6.00;;;;;-146.03;100.00;60875.16;5012894;28;45553;-82
2022/03/19 02:19:20;;;;;;;;;4.50;3.75;;;;;-146.03;100.00;60875.16;4995793;28;45475;-82
2022/03/19 02:21:48;;;;;;;;;3.75;3.75;;;;;-146.03;100.00;60875.16;5011655;28;45534;-82
2022/03/19 02:26:59;;;;;;;;;5.75;4.75;;;;;-146.03;100.00;60875.16;5009126;28;45392;-82
2022/03/19 02:29:25;;;;;;;;;3.00;3.00;;;;;-146.03;100.00;60875.16;5013990;28;45898;-83
2022/03/19 02:31:54;;;;;;;;;6.50;5.00;;;;;-146.03;100.00;60875.16;5009230;28;46815;-82
2022/03/19 02:34:20;;;;;;;;;10.00;6.00;;;;;-146.03;100.00;60875.16;5009901;28;45333;-82
2022/03/19 02:36:46;;;;;;;;;5.75;5.75;;;;;-146.03;100.00;60875.16;5006836;28;45498;-82
2022/03/19 02:39:17;;;;;;;;;6.00;6.00;;;;;-146.03;100.00;60875.16;5007176;28;45548;-82
2022/03/19 02:41:44;;;;;;;;;4.25;4.25;;;;;-146.03;100.00;60875.16;5011306;28;45494;-82
2022/03/19 02:44:10;;;;;;;;;6.75;5.25;;;;;-146.03;100.00;60875.16;5009826;28;45414;-82
2022/03/19 02:46:57;;;;;;;;;5.00;5.00;;;;;-146.03;100.00;60875.16;5013434;28;45466;-82
2022/03/19 02:49:23;;;;;;;;;6.00;5.00;;;;;-146.03;100.00;60875.16;5013871;28;45371;-81
2022/03/19 02:51:51;;;;;;;;;5.25;5.00;;;;;-146.03;100.00;60875.16;4989305;28;47504;-81
2022/03/19 02:54:19;;;;;;;;;5.25;5.25;;;;;-146.03;100.00;60875.16;5012261;28;45596;-81
2022/03/19 02:56:46;;;;;;;;;5.75;5.00;;;;;-146.03;100.00;60875.16;5011180;28;45597;-82
2022/03/19 02:59:14;;;;;;;;;5.75;5.25;;;;;-146.03;100.00;60875.16;5012151;28;45666;-82
2022/03/19 03:01:40;;;;;;;;;10.00;9.50;;;;;-146.03;100.00;60875.16;5008602;28;46215;-82
2022/03/19 03:04:06;;;;;;;;;8.50;7.50;;;;;-146.03;100.00;60875.16;5011735;28;45455;-82
2022/03/19 03:06:40;;;;;;;;;8.50;6.50;;;;;-146.03;100.00;60875.16;5007097;28;45589;-82
2022/03/19 03:09:07;;;;;;;;;7.25;7.25;;;;;-146.03;100.00;60875.16;5012539;28;45605;-82
2022/03/19 03:11:32;;;;;;;;;9.25;6.75;;;;;-146.03;100.00;60875.16;5007619;28;46681;-82
2022/03/19 03:13:59;;;;;;;;;8.25;6.25;;;;;-146.03;100.00;60875.16;5007860;28;45372;-82
2022/03/19 03:16:29;;;;;;;;;6.75;6.75;;;;;-146.03;100.00;60875.16;5009859;28;45519;-82
2022/03/19 03:18:56;;;;;;;;;9.50;6.50;;;;;-146.03;100.00;60875.16;5009174;28;45505;-82
2022/03/19 03:21:22;;;;;;;;;5.75;4.00;;;;;-146.03;100.00;60875.16;5011458;28;45542;-82
2022/03/19 03:23:47;;;;;;;;;7.75;5.00;;;;;-146.03;100.00;60875.16;5011002;28;45797;-82
2022/03/19 03:26:13;;;;;;;;;8.25;4.75;;;;;-146.03;100.00;60875.16;5011645;28;45411;-82
2022/03/19 03:28:38;;;;;;;;;8.50;8.25;;;;;-146.03;100.00;60875.16;5011492;28;45441;-82
2022/03/19 03:31:03;;;;;;;;;10.00;10.00;;;;;-146.03;100.00;60875.16;5010332;28;46216;-82
2022/03/19 03:33:29;;;;;;;;;9.25;7.25;;;;;-146.03;100.00;60875.16;5004181;28;45375;-82
2022/03/19 03:35:54;;;;;;;;;10.00;10.00;;;;;-146.03;100.00;60875.16;5000876;28;45382;-82
2022/03/19 03:38:20;;;;;;;;;10.00;5.50;;;;;-146.03;100.00;60875.16;5010465;28;45399;-81
2022/03/19 03:40:45;;;;;;;;;10.50;8.50;;;;;-146.03;100.00;60875.16;5006399;28;46062;-83
2022/03/19 03:43:10;;;;;;;;;9.00;8.75;;;;;-146.03;100.00;60875.16;5010633;28;45470;-82
2022/03/19 03:45:36;;;;;;;;;11.00;9.00;;;;;-146.03;100.00;60875.16;5006685;28;45678;-81
2022/03/19 03:48:01;;;;;;;;;12.00;10.75;;;;;-146.03;100.00;60875.16;5011037;28;45536;-82
2022/03/19 03:50:28;;;;;;;;;10.75;9.75;;;;;-146.03;100.00;60875.16;5013089;28;46725;-80
2022/03/19 03:52:54;;;;;;;;;10.00;10.00;;;;;-146.03;100.00;60875.16;5007607;28;45587;-82
2022/03/19 03:55:20;;;;;;;;;13.00;10.75;;;;;-146.03;100.00;60875.16;5011428;28;45630;-82
2022/03/19 03:57:46;;;;;;;;;11.25;11.00;;;;;-146.03;100.00;60875.16;4988774;28;45405;-82
2022/03/19 04:00:12;;;;;;;;;13.75;13.50;;;;;-146.03;100.00;60875.16;5005597;28;46143;-82
2022/03/19 04:02:37;;;;;;;;;9.50;9.50;;;;;-146.03;100.00;60875.16;4999265;28;45473;-82
2022/03/19 04:05:04;;;;;;;;;9.75;9.75;;;;;-146.03;100.00;60875.16;5006336;28;45563;-81
2022/03/19 04:07:30;;;;;;;;;11.25;9.50;;;;;-146.03;100.00;60875.16;5008563;28;45442;-82
2022/03/19 04:09:55;;;;;;;;;10.50;10.50;;;;;-146.03;100.00;60875.16;5010144;28;46045;-82
2022/03/19 04:12:22;;;;;;;;;16.50;11.00;;;;;-146.03;100.00;60875.16;5012932;28;45634;-82
2022/03/19 04:14:48;;;;;;;;;12.75;10.25;;;;;-146.03;100.00;60875.16;5004660;28;45596;-82
2022/03/19 04:17:14;;;;;;;;;14.75;11.25;;;;;-146.03;100.00;60875.16;4994747;28;45467;-82
2022/03/19 04:19:40;;;;;;;;;8.25;6.25;;;;;-146.03;100.00;60875.16;5009162;28;45580;-82
2022/03/19 04:22:05;;;;;;;;;13.75;13.75;;;;;-146.03;100.00;60875.16;5012335;28;45502;-82
2022/03/19 04:24:31;;;;;;;;;19.50;14.25;;;;;-146.03;100.00;60875.16;5010820;28;45414;-82
2022/03/19 04:26:57;;;;;;;;;12.75;10.75;;;;;-146.03;100.00;60875.16;5010274;28;45402;-82
2022/03/19 04:29:23;;;;;;;;;11.25;9.75;;;;;-146.03;100.00;60875.16;5006867;28;46531;-82
2022/03/19 04:31:48;;;;;;;;;11.50;9.75;;;;;-146.03;100.00;60875.16;5010580;28;45406;-82
2022/03/19 04:34:13;;;;;;;;;11.50;10.50;;;;;-146.03;100.00;60875.16;5011947;28;45439;-82
2022/03/19 04:36:39;;;;;;;;;11.75;11.00;;;;;-146.03;100.00;60875.16;5015121;28;45457;-82
2022/03/19 04:39:07;;;;;;;;;17.25;13.75;;;;;-146.03;100.00;60875.16;5016694;28;46119;-82
2022/03/19 04:41:33;;;;;;;;;23.75;19.00;;;;;-146.03;100.00;60875.16;5017069;28;51350;-82
2022/03/19 04:44:00;;;;;;;;;15.75;15.00;;;;;-146.03;100.00;60875.16;5017353;28;45358;-82
2022/03/19 04:46:25;;;;;;;;;18.50;14.25;;;;;-146.03;100.00;60875.16;4991136;28;45701;-82
2022/03/19 04:48:52;;;;;;;;;23.00;19.75;;;;;-146.03;100.00;60875.16;5006002;28;46329;-82
2022/03/19 04:51:22;;;;;;;;;15.75;15.75;;;;;-146.03;100.00;60875.16;5005213;28;45434;-82
2022/03/19 04:53:50;;;;;;;;;18.00;16.50;;;;;-146.03;100.00;60875.16;5001598;28;45686;-81
2022/03/19 04:56:20;;;;;;;;;18.75;17.00;;;;;-146.03;100.00;60875.16;5002859;28;45471;-82
2022/03/19 04:58:46;;;;;;;;;25.00;18.50;;;;;-146.03;100.00;60875.16;5016536;28;47661;-82
2022/03/19 05:01:11;;;;;;;;;21.50;17.00;;;;;-146.03;100.00;60875.16;5017122;28;45518;-82
2022/03/19 05:03:37;;;;;;;;;17.50;15.50;;;;;-146.03;100.00;60875.16;5017306;28;45329;-82
2022/03/19 05:06:02;;;;;;;;;19.50;17.00;;;;;-146.03;100.00;60875.16;5017385;28;45315;-82
2022/03/19 05:08:28;;;;;;;;;20.75;13.25;;;;;-146.03;100.00;60875.16;5017314;28;46605;-82
2022/03/19 05:13:37;;;;;;;;;17.50;17.50;;;;;-146.03;100.00;60875.16;5016746;28;46007;-82
2022/03/19 05:16:02;;;;;;;;;23.00;20.75;;;;;-146.03;100.00;60875.16;5016642;28;51333;-82
2022/03/19 05:18:28;;;;;;;;;23.00;18.00;;;;;-146.03;100.00;60875.16;4999210;28;46519;-82
2022/03/19 05:20:53;;;;;;;;;22.75;22.00;;;;;-146.03;100.00;60875.16;5017040;28;45572;-82
2022/03/19 05:23:19;;;;;;;;;20.25;19.50;;;;;-146.03;100.00;60875.16;4999974;28;45382;-82
2022/03/19 05:25:45;;;;;;;;;21.50;21.00;;;;;-146.03;100.00;60875.16;5016595;28;45455;-85
2022/03/19 05:28:10;;;;;;;;;27.75;24.00;;;;;-146.03;100.00;60875.16;5016756;28;46951;-82
2022/03/19 05:30:37;;;;;;;;;24.00;23.00;;;;;-146.03;100.00;60875.16;5016924;28;45387;-82
2022/03/19 05:33:03;;;;;;;;;22.25;20.75;;;;;-146.03;100.00;60875.16;5016987;28;45437;-82
2022/03/19 05:35:29;;;;;;;;;23.75;23.50;;;;;-146.03;100.00;60875.16;5017279;28;45478;-82
2022/03/19 05:37:55;;;;;;;;;23.00;22.50;;;;;-146.03;100.00;60875.16;5016171;28;45423;-82
2022/03/19 05:40:20;;;;;;;;;28.50;24.50;;;;;-146.03;100.00;60875.16;4995665;28;45392;-82
2022/03/19 05:42:46;;;;;;;;;29.25;25.25;;;;;-146.03;100.00;60875.16;4997530;28;45695;-82
2022/03/19 05:45:13;;;;;;;;;24.50;23.25;;;;;-146.03;100.00;60875.16;5016527;28;45449;-83
2022/03/19 05:47:39;;;;;;;;;26.00;26.00;;;;;-146.03;100.00;60875.16;5016841;28;45405;-82
2022/03/19 05:50:06;;;;;;;;;29.00;24.25;;;;;-146.03;100.00;60875.16;5017237;28;45283;-82
2022/03/19 05:52:31;;;;;;;;;27.50;23.25;;;;;-146.03;100.00;60875.16;5016745;28;45394;-83
2022/03/19 05:54:56;;;;;;;;;27.75;24.75;;;;;-146.03;100.00;60875.16;5016137;28;45435;-82
2022/03/19 05:57:22;;;;;;;;;29.00;27.75;;;;;-146.03;100.00;60875.16;4997255;28;48247;-82
2022/03/19 05:59:47;;;;;;;;;31.50;25.00;;;;;-146.03;100.00;60875.16;4998707;28;45421;-83
2022/03/19 06:02:12;;;;;;;;;38.00;28.25;;;;;-146.03;100.00;60875.16;5017226;28;45365;-82
2022/03/19 06:04:38;;;;;;;;;30.00;23.75;;;;;-146.03;100.00;60875.16;5016448;28;45499;-82
2022/03/19 06:07:04;;;;;;;;;28.75;24.75;;;;;-146.03;100.00;60875.16;5016073;28;45463;-82
2022/03/19 06:09:30;;;;;;;;;34.00;29.00;;;;;-146.03;100.00;60875.16;5015876;28;45440;-82
2022/03/19 06:11:55;;;;;;;;;24.50;23.00;;;;;-146.03;100.00;60875.16;5016479;28;45796;-82
2022/03/19 06:14:20;;;;;;;;;29.50;27.75;;;;;-146.03;100.00;60875.16;5016998;28;45288;-83
2022/03/19 06:16:46;;;;;;;;;28.25;25.00;;;;;-146.03;100.00;60875.16;5015949;28;46573;-83
2022/03/19 06:19:11;;;;;;;;;31.00;26.50;;;;;-146.03;100.00;60875.16;5016126;28;45397;-83
2022/03/19 06:21:40;;;;;;;;;28.25;23.25;;;;;-146.03;100.00;60875.16;5016174;28;45458;-82
2022/03/19 06:24:07;;;;;;;;;32.00;26.25;;;;;-146.03;100.00;60875.16;5015857;28;45568;-82
2022/03/19 06:26:33;;;;;;;;;30.50;28.00;;;;;-146.03;100.00;60875.16;5016110;28;46169;-82
2022/03/19 06:28:59;;;;;;;;;38.25;31.25;;;;;-146.03;100.00;60875.16;5016453;28;45490;-82
2022/03/19 06:31:24;;;;;;;;;35.00;30.50;;;;;-146.03;100.00;60875.16;5015975;28;45414;-82
2022/03/19 06:33:50;;;;;;;;;36.75;32.00;;;;;-146.03;100.00;60875.16;4996826;28;45577;-82
2022/03/19 06:39:00;;;;;;;;;31.00;25.00;;;;;-146.03;100.00;60875.16;5000919;28;45473;-82
2022/03/19 06:41:25;;;;;;;;;37.00;32.50;;;;;-146.03;100.00;60875.16;5016348;28;45657;-82
2022/03/19 06:43:51;;;;;;;;;37.00;34.25;;;;;-146.03;100.00;60875.16;5015055;28;50121;-82
2022/03/19 06:46:16;;;;;;;;;39.75;34.25;;;;;-146.03;100.00;60875.16;5014268;28;45865;-82
2022/03/19 06:48:42;;;;;;;;;36.00;30.00;;;;;-146.03;100.00;60875.16;5015703;28;45450;-83
2022/03/19 06:51:07;;;;;;;;;42.00;34.25;;;;;-146.03;100.00;60875.16;5015840;28;45288;-83
2022/03/19 06:53:33;;;;;;;;;36.50;32.50;;;;;-146.03;100.00;60875.16;4996655;28;45362;-83
2022/03/19 06:55:58;;;;;;;;;39.75;31.75;;;;;-146.03;100.00;60875.16;5016047;28;45484;-82
2022/03/19 06:58:24;;;;;;;;;40.25;35.75;;;;;-146.03;100.00;60875.16;5015245;28;46864;-83
2022/03/19 07:00:50;;;;;;;;;45.50;34.50;;;;;-146.03;100.00;60875.16;5014893;28;45491;-83
2022/03/19 07:03:15;;;;;;;;;45.75;36.75;;;;;-146.03;100.00;60875.16;5015553;28;45397;-82
2022/03/19 07:05:41;;;;;;;;;39.25;35.00;;;;;-146.03;100.00;60875.16;5015051;28;45998;-83
2022/03/19 07:08:09;;;;;;;;;46.50;37.75;;;;;-146.03;100.00;60875.16;5015733;28;45304;-82
2022/03/19 07:10:35;;;;;;;;;40.75;34.50;;;;;-146.03;100.00;60875.16;5015409;28;45438;-82
2022/03/19 07:13:02;;;;;;;;;47.00;37.50;;;;;-146.03;100.00;60875.16;5014741;28;45436;-81
2022/03/19 07:15:28;;;;;;;;;45.50;35.25;;;;;-146.03;100.00;60875.16;5013334;28;47403;-82
2022/03/19 07:17:57;;;;;;;;;41.75;37.50;;;;;-146.03;100.00;60875.16;5014705;28;45962;-82
2022/03/19 07:20:23;;;;;;;;;49.75;40.25;;;;;-146.03;100.00;60875.16;5011650;28;45402;-82
2022/03/19 07:23:00;;;;;;;;;37.75;34.50;;;;;-146.03;100.00;60875.16;5013960;28;45327;-82
2022/03/19 07:25:28;;;;;;;;;48.00;39.75;;;;;-146.03;100.00;60875.16;4995741;28;46629;-82
2022/03/19 07:27:56;;;;;;;;;44.50;37.75;;;;;-146.03;100.00;60875.16;5013911;28;45701;-82
2022/03/19 07:30:22;;;;;;;;;48.50;39.50;;;;;-146.03;100.00;60875.16;5014270;28;45559;-82
2022/03/19 07:32:47;;;;;;;;;53.25;42.00;;;;;-146.03;100.00;60875.16;5014642;28;45600;-82
2022/03/19 07:35:14;;;;;;;;;45.75;40.00;;;;;-146.03;100.00;60875.16;5014655;28;45450;-82
2022/03/19 07:37:43;;;;;;;;;42.50;37.00;;;;;-146.03;100.00;60875.16;5014505;28;45456;-82
2022/03/19 07:40:11;;;;;;;;;59.00;44.75;;;;;-146.03;100.00;60875.16;5014899;28;45402;-82
2022/03/19 07:42:37;;;;;;;;;60.00;45.75;;;;;-146.03;100.00;60875.16;5014505;28;45544;-82
2022/03/19 07:45:03;;;;;;;;;52.75;41.00;;;;;-146.03;100.00;60875.16;5014087;28;45537;-82
2022/03/19 07:47:30;;;;;;;;;63.25;47.25;;;;;-146.03;100.00;60875.16;5012684;28;45623;-82
2022/03/19 07:49:56;;;;;;;;;54.00;43.00;;;;;-146.03;100.00;60875.16;5012663;28;45474;-82
2022/03/19 07:52:21;;;;;;;;;52.75;43.50;;;;;-146.03;100.00;60875.16;5013024;28;45437;-82
2022/03/19 07:54:47;;;;;;;;;56.50;43.75;;;;;-146.03;100.00;60875.16;5013175;28;45482;-82
2022/03/19 07:57:13;;;;;;;;;54.00;42.75;;;;;-146.03;100.00;60875.16;4995473;28;45939;-82
2022/03/19 07:59:39;;;;;;;;;51.25;42.50;;;;;-146.03;100.00;60875.16;5014274;28;45806;-82
2022/03/19 08:02:05;;;;;;;;;54.50;42.75;;;;;-146.03;100.00;60875.16;5013815;28;45498;-82
2022/03/19 08:04:31;;;;;;;;;57.75;47.25;;;;;-146.03;100.00;60875.16;5012633;28;45614;-82
2022/03/19 08:06:56;;;;;;;;;55.25;44.75;;;;;-146.03;100.00;60875.16;5012550;28;45832;-84
2022/03/19 08:09:23;;;;;;;;;59.00;46.50;;;;;-146.03;100.00;60875.16;5013968;28;45553;-84
2022/03/19 08:11:49;;;;;;;;;56.75;46.00;;;;;-146.03;100.00;60875.16;5013880;28;45599;-84
2022/03/19 08:14:15;;;;;;;;;56.75;46.00;;;;;-146.03;100.00;60875.16;4995305;28;47522;-84
2022/03/19 08:16:46;;;;;;;;;62.50;45.75;;;;;-146.03;100.00;60875.16;5011640;28;45754;-85
2022/03/19 08:19:12;;;;;;;;;58.25;44.50;;;;;-146.03;100.00;60875.16;5013136;28;45587;-85
2022/03/19 08:21:44;;;;;;;;;53.00;43.50;;;;;-146.03;100.00;60875.16;5012553;28;45702;-84
2022/03/19 08:24:11;;;;;;;;;61.25;48.75;;;;;-146.03;100.00;60875.16;5013115;28;45477;-85
2022/03/19 08:26:37;;;;;;;;;54.00;44.75;;;;;-146.03;100.00;60875.16;5014114;28;45692;-84
2022/03/19 08:29:03;;;;;;;;;60.00;48.00;;;;;-146.03;100.00;60875.16;5012937;28;45466;-85
2022/03/19 08:31:28;;;;;;;;;59.75;45.25;;;;;-146.03;100.00;60875.16;5011760;28;45495;-85
2022/03/19 08:33:55;;;;;;;;;58.50;47.75;;;;;-146.03;100.00;60875.16;5013775;28;46287;-85
2022/03/19 08:36:20;;;;;;;;;55.50;45.25;;;;;-146.03;100.00;60875.16;5013212;28;45575;-85
2022/03/19 08:41:30;;;;;;;;;59.25;47.50;;;;;-146.03;100.00;60875.16;5010900;28;45482;-85
2022/03/19 08:43:56;;;;;;;;;58.00;46.50;;;;;-146.03;100.00;60875.16;5012910;28;45442;-85
2022/03/19 08:46:21;;;;;;;;;61.75;46.25;;;;;-146.03;100.00;60875.16;4993985;28;45438;-84
2022/03/19 08:48:46;;;;;;;;;60.00;47.25;;;;;-146.03;100.00;60875.16;5012345;28;47753;-84
2022/03/19 08:53:55;;;;;;;;;60.25;45.25;;;;;-146.03;100.00;60875.16;4998246;28;45390;-85
2022/03/19 08:56:21;;;;;;;;;54.75;44.75;;;;;-146.03;100.00;60875.16;5014178;28;45471;-84
2022/03/19 08:58:46;;;;;;;;;55.25;46.25;;;;;-146.03;100.00;60875.16;5013561;28;45307;-84
2022/03/19 09:01:12;;;;;;;;;57.00;43.50;;;;;-146.03;100.00;60875.16;5013514;28;45606;-84
2022/03/19 09:03:37;;;;;;;;;61.75;48.00;;;;;-146.03;100.00;60875.16;5012343;28;46041;-84
2022/03/19 09:06:03;;;;;;;;;61.25;47.75;;;;;-146.03;100.00;60875.16;5013195;28;45428;-84
2022/03/19 09:08:28;;;;;;;;;57.25;46.00;;;;;-146.03;100.00;60875.16;5013697;28;45453;-84
2022/03/19 09:10:56;;;;;;;;;63.50;49.25;;;;;-146.03;100.00;60875.16;5013463;28;45400;-84
2022/03/19 09:13:21;;;;;;;;;58.00;46.00;;;;;-146.03;100.00;60875.16;5012524;28;46364;-84
2022/03/19 09:15:47;;;;;;;;;60.50;46.75;;;;;-146.03;100.00;60875.16;5012843;28;45466;-84
2022/03/19 09:18:12;;;;;;;;;63.50;48.00;;;;;-146.03;100.00;60875.16;5015006;28;45902;-84
2022/03/19 09:20:38;;;;;;;;;57.50;46.25;;;;;-146.03;100.00;60875.16;4996640;28;45764;-85
2022/03/19 09:23:03;;;;;;;;;53.75;43.50;;;;;-146.03;100.00;60875.16;5015193;28;47398;-84
2022/03/19 09:25:29;;;;;;;;;60.25;48.50;;;;;-146.03;100.00;60875.16;5014449;28;46632;-85
2022/03/19 09:27:54;;;;;;;;;58.50;46.00;;;;;-146.03;100.00;60875.16;5016133;28;45249;-84
2022/03/19 09:30:20;;;;;;;;;64.50;47.25;;;;;-146.03;100.00;60875.16;5015486;28;45418;-84
2022/03/19 09:32:45;;;;;;;;;58.75;47.25;;;;;-146.03;100.00;60875.16;5015518;28;46232;-84
2022/03/19 09:35:11;;;;;;;;;55.75;44.00;;;;;-146.03;100.00;60875.16;5016318;28;45707;-84
2022/03/19 09:37:36;;;;;;;;;55.25;46.50;;;;;-146.03;100.00;60875.16;5014926;28;45488;-84
2022/03/19 09:40:03;;;;;;;;;53.50;44.00;;;;;-146.03;100.00;60875.16;5015608;28;45302;-84
2022/03/19 09:42:28;;;;;;;;;56.50;46.25;;;;;-146.03;100.00;60875.16;5015698;28;46362;-84
2022/03/19 09:44:53;;;;;;;;;58.50;43.00;;;;;-146.03;100.00;60875.16;5015688;28;46896;-84
2022/03/19 09:47:19;;;;;;;;;61.50;46.75;;;;;-146.03;100.00;60875.16;5015312;28;45698;-84
2022/03/19 09:49:44;;;;;;;;;50.75;43.25;;;;;-146.03;100.00;60875.16;5015696;28;45477;-84
2022/03/19 09:52:12;;;;;;;;;52.50;43.75;;;;;-146.03;100.00;60875.16;5015677;28;46151;-84
2022/03/19 09:54:38;;;;;;;;;55.75;43.50;;;;;-146.03;100.00;60875.16;4996603;28;45709;-84
2022/03/19 09:57:03;;;;;;;;;55.50;45.00;;;;;-146.03;100.00;60875.16;5014776;28;45442;-85
2022/03/19 09:59:29;;;;;;;;;57.50;45.50;;;;;-146.03;100.00;60875.16;5015618;28;45257;-84
2022/03/19 10:01:55;;;;;;;;;58.75;45.50;;;;;-146.03;100.00;60875.16;5017317;28;45431;-84
2022/03/19 10:04:21;;;;;;;;;59.00;46.00;;;;;-146.03;100.00;60875.16;5016458;28;45665;-85
2022/03/19 10:09:47;;;;;;;;;56.25;45.50;;;;;-146.03;100.00;60875.16;5015325;28;45479;-84
2022/03/19 10:12:16;;;;;;;;;57.75;46.25;;;;;-146.03;100.00;60875.16;5015188;28;45738;-85
2022/03/19 10:14:46;;;;;;;;;58.25;45.25;;;;;-146.03;100.00;60875.16;5025306;28;45422;-85
2022/03/19 10:17:34;;;;;;;;;57.00;45.25;;;;;-146.03;100.00;60875.16;5015294;28;45410;-84
2022/03/19 10:20:09;;;;;;;;;54.75;42.25;;;;;-146.03;100.00;60875.16;5022608;28;45367;-84
2022/03/19 10:22:37;;;;;;;;;57.50;45.25;;;;;-146.03;100.00;60875.16;5014553;28;46733;-84
2022/03/19 10:25:05;;;;;;;;;52.25;43.00;;;;;-146.03;100.00;60875.16;5017681;28;45554;-85
2022/03/19 10:27:33;;;;;;;;;54.50;42.25;;;;;-146.03;100.00;60875.16;5014987;28;45486;-84
2022/03/19 10:30:07;;;;;;;;;55.50;42.75;;;;;-146.03;100.00;60875.16;5009536;28;45470;-85
2022/03/19 10:32:34;;;;;;;;;53.25;44.75;;;;;-146.03;100.00;60875.16;5018372;28;45720;-85
2022/03/19 10:35:01;;;;;;;;;53.00;42.50;;;;;-146.03;100.00;60875.16;5014574;28;45497;-85
2022/03/19 10:37:53;;;;;;;;;53.50;42.75;;;;;-146.03;100.00;60875.16;4995913;28;45721;-85
2022/03/19 10:40:18;;;;;;;;;54.25;43.00;;;;;-146.03;100.00;60875.16;5011311;28;45470;-85
2022/03/19 10:42:43;;;;;;;;;49.00;39.75;;;;;-146.03;100.00;60875.16;5015113;28;45698;-85
2022/03/19 10:45:11;;;;;;;;;53.75;44.50;;;;;-146.03;100.00;60875.16;5013271;28;45507;-86
2022/03/19 10:47:45;;;;;;;;;49.50;39.75;;;;;-146.03;100.00;60875.16;5013474;28;45508;-86
2022/03/19 10:50:22;;;;;;;;;52.75;42.75;;;;;-146.03;100.00;60875.16;5013632;28;45487;-86
2022/03/19 10:52:49;;;;;;;;;53.50;43.00;;;;;-146.03;100.00;60875.16;5013997;28;46552;-87
2022/03/19 10:55:17;;;;;;;;;51.75;43.00;;;;;-146.03;100.00;60875.16;4997585;28;45509;-85
2022/03/19 10:57:44;;;;;;;;;48.75;39.50;;;;;-146.03;100.00;60875.16;5013166;28;45573;-85
2022/03/19 11:00:11;;;;;;;;;48.00;39.75;;;;;-146.03;100.00;60875.16;5013265;28;45487;-86
2022/03/19 11:02:43;;;;;;;;;53.00;43.00;;;;;-146.03;100.00;60875.16;4995475;28;48578;-86
2022/03/19 11:05:10;;;;;;;;;50.00;42.00;;;;;-146.03;100.00;60875.16;5013230;28;45312;-86
2022/03/19 11:07:38;;;;;;;;;50.75;42.25;;;;;-146.03;100.00;60875.16;5013325;28;45418;-86
2022/03/19 11:10:06;;;;;;;;;50.50;42.00;;;;;-146.03;100.00;60875.16;4995781;28;45745;-86
2022/03/19 11:12:34;;;;;;;;;50.75;41.50;;;;;-146.03;100.00;60875.16;5015782;28;46273;-83